Flight Track Log - Related Links

Times and Time Zones

All times are in EDT time to prevent confusion due to time zone crossing. See the N290CD flight status page for this flight to view local times or setup timezone preferences in your user account.

Time Position Orientation Groundspeed Altitude Reporting Facility
EDT Latitude Longitude Course Direction KTS MPH feet Rate Location/Type
Wed 04:41:22 PM 35.1981 -80.8872 91° East 119 137 1,800  Level Atlanta Center
Wed 04:42:23 PM 35.2031 -80.8436 82° East 121 139 2,300 537 Climbing Atlanta Center
Wed 04:43:25 PM 35.1978 -80.8008 99° East 130 150 2,900 293 Climbing Atlanta Center
Wed 04:44:26 PM 35.1844 -80.7656 115° Southeast 119 137 2,900 590 Level Atlanta Center
Wed 04:45:27 PM 35.1728 -80.7256 110° East 122 140 4,100 885 Climbing Atlanta Center
Wed 04:46:00 PM 35.1234 -80.6430 109° East  Level Estimated
Wed 04:46:28 PM 35.1592 -80.6828 111° Southeast 127 146 4,700  Level Atlanta Center
Wed 04:47:29 PM 35.1453 -80.6353 110° East 143 165 5,000 148 Climbing Atlanta Center
Wed 04:48:30 PM 35.1294 -80.5875 112° Southeast 162 186 5,000  Level Atlanta Center
Wed 04:50:32 PM 35.0972 -80.4822 110° East 160 184 5,000  Level Atlanta Center
Wed 04:51:34 PM 35.0831 -80.4322 109° East 159 183 5,000  Level Atlanta Center
Wed 04:52:35 PM 35.0669 -80.3794 110° East 159 183 5,000  Level Atlanta Center
Wed 04:53:36 PM 35.0508 -80.3294 111° Southeast 156 180 5,000  Level Atlanta Center
Wed 04:54:37 PM 35.0369 -80.2794 109° East 158 182 5,000  Level Atlanta Center
Wed 04:56:00 PM 35.0090 -80.2162 118° Southeast  Level FlightAware Approximate
Wed 05:03:00 PM 34.8876 -79.8823 111° Southeast  Level FlightAware Approximate
Wed 05:04:00 PM 34.8725 -79.8338 111° Southeast  Level FlightAware Approximate
Wed 05:05:00 PM 34.8574 -79.7853 111° Southeast  Level FlightAware Approximate
Wed 05:06:00 PM 34.8422 -79.7369 111° Southeast  Level FlightAware Approximate
Wed 05:07:00 PM 34.8270 -79.6884 111° Southeast  Level FlightAware Approximate
Wed 05:08:00 PM 34.8119 -79.6400 111° Southeast  Level FlightAware Approximate
Wed 05:09:00 PM 34.7966 -79.5916 111° Southeast  Level FlightAware Approximate
Wed 05:10:00 PM 34.7814 -79.5432 111° Southeast  Level FlightAware Approximate
Wed 05:11:00 PM 34.7662 -79.4949 111° Southeast  Level FlightAware Approximate
Wed 05:12:00 PM 34.7509 -79.4465 111° Southeast  Level FlightAware Approximate
Wed 05:13:00 PM 34.7356 -79.3982 111° Southeast  Level FlightAware Approximate
Wed 05:14:00 PM 34.7203 -79.3499 111° Southeast  Level FlightAware Approximate
Wed 05:15:00 PM 34.7050 -79.3016 111° Southeast  Level FlightAware Approximate
Wed 05:16:00 PM 34.6897 -79.2533 111° Southeast  Level FlightAware Approximate
Wed 05:17:00 PM 34.6749 -79.2048 110° East  Level FlightAware Approximate
Wed 05:18:00 PM 34.6606 -79.1561 110° East  Level FlightAware Approximate
Wed 05:19:00 PM 34.6462 -79.1074 110° East  Level FlightAware Approximate
Wed 05:20:00 PM 34.6318 -79.0587 110° East  Level FlightAware Approximate
Wed 05:21:00 PM 34.6174 -79.0100 110° East  Level FlightAware Approximate
Wed 05:22:00 PM 34.6030 -78.9614 110° East  Level FlightAware Approximate
Wed 05:23:00 PM 34.5885 -78.9128 110° East  Level FlightAware Approximate
Wed 05:24:00 PM 34.5741 -78.8642 110° East  Level FlightAware Approximate
Wed 05:25:00 PM 34.5596 -78.8156 110° East  Level FlightAware Approximate
Wed 05:26:00 PM 34.5451 -78.7670 110° East  Level FlightAware Approximate
Wed 05:27:00 PM 34.5305 -78.7185 110° East  Level FlightAware Approximate
Wed 05:28:00 PM 34.5160 -78.6699 110° East  Level FlightAware Approximate
Wed 05:29:00 PM 34.5014 -78.6214 110° East  Level FlightAware Approximate
Wed 05:30:00 PM 34.4857 -78.5735 112° Southeast  Level FlightAware Approximate
Wed 05:31:00 PM 34.4698 -78.5256 112° Southeast  Level FlightAware Approximate
Wed 05:32:00 PM 34.4539 -78.4777 112° Southeast  Level FlightAware Approximate
Wed 05:33:00 PM 34.4380 -78.4299 112° Southeast  Level FlightAware Approximate
Wed 05:34:00 PM 34.4220 -78.3820 112° Southeast  Level FlightAware Approximate
Wed 05:35:00 PM 34.4060 -78.3342 112° Southeast  Level FlightAware Approximate
Wed 05:36:00 PM 34.3900 -78.2864 112° Southeast  Level FlightAware Approximate
Wed 05:37:00 PM 34.3740 -78.2386 112° Southeast  Level FlightAware Approximate
Wed 05:38:00 PM 34.3592 -78.1904 109° East  Level FlightAware Approximate
Wed 05:39:00 PM 34.3453 -78.1416 109° East  Level FlightAware Approximate
Wed 05:40:00 PM 34.3314 -78.0929 109° East  Level FlightAware Approximate
Wed 05:41:00 PM 34.3175 -78.0443 109° East  Level FlightAware Approximate
Wed 05:42:00 PM 34.3035 -77.9956 109° East  Level FlightAware Approximate
Wed 05:43:00 PM 34.2861 -77.9486 116° Southeast  Level FlightAware Approximate
Wed 05:44:00 PM 34.2676 -77.9023 116° Southeast  Level FlightAware Approximate
Wed 05:45:00 PM 34.2667 -77.9000 116° Southeast  Level FlightAware Approximate
Wed 05:46:00 PM 34.2706 -77.9026 116° Southeast  Level Estimated

Login

Don't have an account? Register now (free) for customized features, flight alerts, and more!